Currently 73°F in Riverside (Presidential Park), California, USA
73°F
73°F / 63°F
2 mph NW
0.00"
Saturday, June 23, 2018 11:00 AM PDT

Riverside (Presidential Park), California Weather Summary
Last 36 Hours

Temperature Winds Hourly Humidity Dewpoint
Time Report Norm Report Norm Max Gusts Precip. Rpt. Norm Rpt. Norm Pressure
1,2Sat 11:00 AM  73.3°F  81°F  2 mph NW  3 mph  8 mph  0.00"  67%  44%  61°F  56°F  29.84"
Sat 10:00 AM  68.9°F  77°F  4 mph W  2 mph  8 mph  0.00"  76%  52%  61°F  57°F  29.83"
Sat 09:00 AM  65.1°F  72°F  calm  2 mph  5 mph  0.00"  85%  61%  60°F  57°F  29.84"
Sat 08:00 AM  64.3°F  68°F  3 mph SE  1 mph  4 mph  0.00"  87%  69%  60°F  57°F  29.82"
Sat 07:00 AM  63.3°F  64°F  1 mph E  1 mph  4 mph  0.00"  88%  75%  60°F  56°F  29.81"
Sat 06:00 AM  62.8°F  63°F  2 mph E  1 mph  3 mph  0.00"  88%  76%  59°F  55°F  29.80"
3Sat 05:25 AM  62.7°F  63°F  calm  1 mph  2 mph  ----  88%  75%  59°F  55°F  29.80"
Sat 05:00 AM  63.1°F  64°F  calm  1 mph  5 mph  0.00"  88%  74%  59°F  55°F  29.80"
Sat 04:00 AM  63.5°F  64°F  1 mph SW  1 mph  6 mph  0.00"  87%  73%  59°F  55°F  29.80"
Sat 03:00 AM  64.6°F  65°F  calm  1 mph  5 mph  0.00"  84%  71%  59°F  55°F  29.79"
Sat 02:00 AM  65.1°F  66°F  2 mph SW  1 mph  5 mph  0.00"  82%  68%  59°F  55°F  29.80"
Sat 01:00 AM  66.8°F  68°F  3 mph W  1 mph  7 mph  0.00"  78%  65%  59°F  55°F  29.80"
Sat 12:00 AM  68.9°F  69°F  3 mph W  2 mph  6 mph  0.00"  72%  62%  59°F  55°F  29.81"
Fri 11:00 PM  71.3°F  71°F  3 mph SW  2 mph  7 mph  0.00"  67%  58%  59°F  55°F  29.81"
Fri 10:00 PM  74.0°F  73°F  2 mph NW  3 mph  7 mph  0.00"  61%  54%  59°F  55°F  29.80"
Fri 09:00 PM  76.4°F  76°F  4 mph W  3 mph  9 mph  0.00"  55%  48%  59°F  54°F  29.79"
Fri 08:00 PM  80.4°F  79°F  6 mph W  5 mph  12 mph  0.00"  45%  42%  56°F  53°F  29.77"
Fri 07:00 PM  84.9°F  82°F  7 mph W  7 mph  15 mph  0.00"  36%  36%  54°F  52°F  29.76"
Fri 06:00 PM  88.5°F  85°F  6 mph W  8 mph  12 mph  0.00"  33%  33%  55°F  51°F  29.75"
Fri 05:00 PM  89.9°F  87°F  7 mph W  9 mph  15 mph  0.00"  30%  30%  53°F  51°F  29.75"
Fri 04:00 PM  90.3°F  88°F  6 mph W  8 mph  12 mph  0.00"  31%  28%  55°F  50°F  29.77"
Fri 03:00 PM  89.8°F  89°F  4 mph SW  8 mph  13 mph  0.00"  34%  28%  57°F  51°F  29.79"
Fri 02:00 PM  87.4°F  89°F  5 mph W  7 mph  11 mph  0.00"  37%  30%  57°F  52°F  29.81"
Fri 01:00 PM  83.7°F  87°F  5 mph SW  6 mph  10 mph  0.00"  42%  32%  58°F  53°F  29.84"
Fri 12:00 PM  78.4°F  84°F  5 mph NW  4 mph  11 mph  0.00"  56%  37%  61°F  54°F  29.86"
Fri 11:00 AM  73.6°F  80°F  2 mph W  3 mph  9 mph  0.00"  64%  44%  60°F  56°F  29.89"
Fri 10:00 AM  70.5°F  76°F  2 mph W  2 mph  8 mph  0.00"  73%  52%  61°F  57°F  29.90"
Fri 09:00 AM  66.7°F  72°F  3 mph SE  2 mph  4 mph  0.00"  82%  61%  61°F  57°F  29.90"
Fri 08:00 AM  65.4°F  68°F  3 mph NE  1 mph  6 mph  0.00"  85%  69%  61°F  57°F  29.90"
Fri 07:00 AM  64.0°F  64°F  4 mph NE  1 mph  4 mph  0.00"  87%  76%  60°F  56°F  29.90"
Fri 06:00 AM  63.8°F  62°F  2 mph SE  1 mph  4 mph  0.00"  87%  76%  60°F  55°F  29.90"
Fri 05:00 AM  63.3°F  63°F  1 mph SE  1 mph  5 mph  0.00"  88%  75%  59°F  55°F  29.88"
Fri 04:00 AM  63.5°F  64°F  2 mph SE  1 mph  5 mph  0.00"  87%  73%  59°F  55°F  29.89"
Fri 03:00 AM  63.4°F  65°F  2 mph W  1 mph  7 mph  0.00"  87%  71%  59°F  55°F  29.90"
Fri 02:00 AM  64.5°F  66°F  4 mph W  1 mph  6 mph  0.00"  84%  69%  59°F  55°F  29.91"
Fri 01:00 AM  65.0°F  67°F  1 mph S  1 mph  6 mph  0.00"  81%  66%  59°F  55°F  29.91"
Fri 12:00 AM  66.5°F  69°F  2 mph SW  2 mph  5 mph  0.00"  77%  63%  59°F  55°F  29.91"

  1. Current weather data. No green row appears if the current weather data is also the high or low for the current day.
  2. High temperature for the current day.
  3. Low temperature for the current day.

The Riverside (Presidential Park), California weather pages are a service of WeatherCurrents.
Copyright ©Sat Jun 23 11:01:01 PDT 2018  WeatherCurrents. All rights reserved. - Submit questions and comments - Privacy Policy

This page automatically refreshes every 10 minutes.